Time;durP1;ratioP1;P1;durP2;ratioP2;P2;SDS_P1;SDS_P2;PMS_P1;PMS_P2;Temp;Humidity;BMP_temperature;BMP_pressure;BME280_temperature;BME280_humidity;BME280_pressure;Samples;Min_cycle;Max_cycle;Signal;HPM_P1;HPM_P2
2022/09/07 00:02:04;;;;;;;;;;;;;;;28.53;43.46;94274.56;4955607;28;7276;-59
2022/09/07 00:04:33;;;;;;;;;;;;;;;28.54;43.53;94264.97;4968627;28;7544;-59
2022/09/07 00:07:24;;;;;;;;;;;;;;;28.54;43.24;94272.53;4967548;28;9042;-59
2022/09/07 00:10:18;;;;;;;;;;;;;;;28.55;43.21;94274.03;4967664;28;7547;-59
2022/09/07 00:12:53;;;;;;;;;;;;;;;28.53;43.68;94268.28;4965137;28;7152;-59
2022/09/07 00:15:26;;;;;;;;;;;;;;;28.52;43.23;94266.78;4964990;28;7052;-60
2022/09/07 00:18:02;;;;;;;;;;;;;;;28.51;43.34;94266.06;4946125;28;7084;-59
2022/09/07 00:21:04;;;;;;;;;;;;;;;28.50;43.13;94269.34;4962868;28;7332;-59
2022/09/07 00:23:33;;;;;;;;;;;;;;;28.50;43.60;94272.09;4951488;28;7339;-59
2022/09/07 00:26:08;;;;;;;;;;;;;;;28.48;43.24;94278.19;4951941;28;7247;-59
2022/09/07 00:28:35;;;;;;;;;;;;;;;28.49;43.25;94279.69;4960938;28;9599;-59
2022/09/07 00:31:02;;;;;;;;;;;;;;;28.48;43.28;94277.44;4941029;28;7326;-59
2022/09/07 00:33:56;;;;;;;;;;;;;;;28.49;43.32;94271.38;4923010;28;6994;-59
2022/09/07 00:36:41;;;;;;;;;;;;;;;28.48;43.57;94269.88;4948519;28;8153;-60
2022/09/07 00:39:27;;;;;;;;;;;;;;;28.47;43.13;94271.16;4940432;28;9683;-59
2022/09/07 00:42:09;;;;;;;;;;;;;;;28.47;43.72;94270.41;4936052;28;9907;-60
2022/09/07 00:44:43;;;;;;;;;;;;;;;28.46;43.51;94261.38;4949179;28;9471;-59
2022/09/07 00:47:37;;;;;;;;;;;;;;;28.45;43.08;94251.56;4959172;28;9207;-59
2022/09/07 00:50:20;;;;;;;;;;;;;;;28.44;43.46;94269.47;4963936;28;7194;-59
2022/09/07 00:52:51;;;;;;;;;;;;;;;28.44;43.37;94252.88;4993239;28;6980;-59
2022/09/07 00:55:21;;;;;;;;;;;;;;;28.42;43.54;94238.06;5008821;28;7092;-59
2022/09/07 00:57:53;;;;;;;;;;;;;;;28.42;43.59;94235.31;4990684;28;7029;-59
2022/09/07 01:00:21;;;;;;;;;;;;;;;28.43;42.85;94240.28;4990697;28;9473;-59
2022/09/07 01:02:50;;;;;;;;;;;;;;;28.42;43.39;94243.59;4989609;28;7535;-59
2022/09/07 01:06:02;;;;;;;;;;;;;;;28.42;43.21;94244.34;4993185;28;7132;-59
2022/09/07 01:08:31;;;;;;;;;;;;;;;28.42;43.24;94240.84;4942019;28;7259;-59
2022/09/07 01:11:25;;;;;;;;;;;;;;;28.40;43.42;94241.38;4932566;28;9278;-59
2022/09/07 01:13:56;;;;;;;;;;;;;;;28.40;43.56;94243.38;4931821;28;9350;-59
2022/09/07 01:16:46;;;;;;;;;;;;;;;28.40;43.09;94241.38;4922621;28;9563;-59
2022/09/07 01:20:02;;;;;;;;;;;;;;;28.39;43.42;94242.63;4939623;28;9410;-59
2022/09/07 01:23:01;;;;;;;;;;;;;;;28.39;43.30;94256.47;4939051;28;7243;-59
2022/09/07 01:26:13;;;;;;;;;;;;;;;28.38;43.38;94247.41;4943092;28;7398;-59
2022/09/07 01:28:46;;;;;;;;;;;;;;;28.38;43.01;94243.94;4933189;28;7050;-59
2022/09/07 01:31:32;;;;;;;;;;;;;;;28.37;43.54;94259.03;4937516;29;7275;-59
2022/09/07 01:34:19;;;;;;;;;;;;;;;28.36;43.17;94255.50;4946930;29;9424;-59
2022/09/07 01:37:25;;;;;;;;;;;;;;;28.35;43.15;94256.81;4942510;29;9546;-59
2022/09/07 01:39:55;;;;;;;;;;;;;;;28.36;43.35;94246.50;4942072;29;7471;-59
2022/09/07 01:42:31;;;;;;;;;;;;;;;28.34;43.16;94254.56;4947718;29;9593;-59
2022/09/07 01:45:01;;;;;;;;;;;;;;;28.33;43.25;94248.28;4958843;28;9376;-59
2022/09/07 01:48:05;;;;;;;;;;;;;;;28.33;43.18;94253.06;4991273;28;7636;-59
2022/09/07 01:50:52;;;;;;;;;;;;;;;28.32;43.12;94252.31;5007138;28;7072;-59
2022/09/07 01:53:23;;;;;;;;;;;;;;;28.33;42.89;94269.69;4979130;28;7305;-59
2022/09/07 01:56:31;;;;;;;;;;;;;;;28.32;43.28;94257.84;4993136;28;7220;-59
2022/09/07 01:59:36;;;;;;;;;;;;;;;28.32;43.46;94263.38;4930098;29;7437;-59
2022/09/07 02:02:38;;;;;;;;;;;;;;;28.31;42.89;94272.22;4896156;29;7180;-59
2022/09/07 02:05:25;;;;;;;;;;;;;;;28.30;42.92;94274.25;4874335;29;7634;-59
2022/09/07 02:08:05;;;;;;;;;;;;;;;28.31;42.81;94272.97;4873908;29;6990;-59
2022/09/07 02:10:41;;;;;;;;;;;;;;;28.31;43.35;94261.16;4852349;29;7754;-59
2022/09/07 02:13:17;;;;;;;;;;;;;;;28.31;43.35;94250.09;4875301;29;7083;-59
2022/09/07 02:16:05;;;;;;;;;;;;;;;28.30;42.93;94249.34;4873269;29;9648;-59
2022/09/07 02:18:57;;;;;;;;;;;;;;;28.31;43.16;94258.41;4876344;29;7396;-59
2022/09/07 02:21:35;;;;;;;;;;;;;;;28.30;43.13;94270.72;4862905;29;7072;-59
2022/09/07 02:24:17;;;;;;;;;;;;;;;28.30;43.40;94295.63;4872805;29;7050;-59
2022/09/07 02:26:48;;;;;;;;;;;;;;;28.31;43.60;94305.41;4860212;29;7581;-59
2022/09/07 02:29:16;;;;;;;;;;;;;;;28.30;42.77;94314.97;4860232;29;6987;-59
2022/09/07 02:31:46;;;;;;;;;;;;;;;28.29;42.86;94321.81;4877311;29;7599;-59
2022/09/07 02:34:12;;;;;;;;;;;;;;;28.30;42.76;94312.22;4895889;29;7163;-59
2022/09/07 02:36:44;;;;;;;;;;;;;;;28.29;43.11;94281.06;4897498;29;7247;-59
2022/09/07 02:39:10;;;;;;;;;;;;;;;28.30;42.62;94265.19;4939199;28;7513;-59
2022/09/07 02:42:23;;;;;;;;;;;;;;;28.30;42.77;94276.25;4965952;28;9463;-59
2022/09/07 02:45:01;;;;;;;;;;;;;;;28.28;43.16;94276.03;4953033;28;9460;-59
2022/09/07 02:48:04;;;;;;;;;;;;;;;28.27;42.89;94275.28;4934797;28;8387;-59
2022/09/07 02:50:55;;;;;;;;;;;;;;;28.26;42.78;94282.13;4891735;29;9709;-59
2022/09/07 02:53:41;;;;;;;;;;;;;;;28.26;43.27;94282.13;4892697;29;9175;-59
2022/09/07 02:56:31;;;;;;;;;;;;;;;28.26;42.95;94275.84;4890114;29;9462;-59
2022/09/07 02:59:12;;;;;;;;;;;;;;;28.26;43.00;94273.06;4888849;29;7425;-59
2022/09/07 03:01:58;;;;;;;;;;;;;;;28.26;42.54;94271.06;4892407;29;7263;-59
2022/09/07 03:04:45;;;;;;;;;;;;;;;28.26;42.88;94250.94;4889505;29;7616;-59
2022/09/07 03:07:28;;;;;;;;;;;;;;;28.24;43.09;94261.78;4884127;29;10447;-59
2022/09/07 03:09:57;;;;;;;;;;;;;;;28.25;43.15;94252.22;4880245;29;7224;-59
2022/09/07 03:12:46;;;;;;;;;;;;;;;28.25;43.00;94255.00;4885523;29;7061;-59
2022/09/07 03:15:20;;;;;;;;;;;;;;;28.24;42.96;94261.78;4886488;29;7068;-59
2022/09/07 03:17:46;;;;;;;;;;;;;;;28.24;42.95;94262.53;4883082;29;9308;-59
2022/09/07 03:20:15;;;;;;;;;;;;;;;28.25;42.68;94257.75;4879726;29;7791;-59
2022/09/07 03:22:41;;;;;;;;;;;;;;;28.24;42.81;94264.56;4911992;29;7301;-59
2022/09/07 03:25:10;;;;;;;;;;;;;;;28.21;43.36;94268.38;4905071;29;7523;-59
2022/09/07 03:27:38;;;;;;;;;;;;;;;28.21;43.00;94257.31;4981041;28;9788;-59
2022/09/07 03:30:09;;;;;;;;;;;;;;;28.21;42.87;94268.38;4982682;28;8634;-59
2022/09/07 03:32:36;;;;;;;;;;;;;;;28.22;42.71;94275.41;4981678;28;7171;-59
2022/09/07 03:35:05;;;;;;;;;;;;;;;28.22;42.86;94276.16;5002043;28;7088;-59
2022/09/07 03:37:35;;;;;;;;;;;;;;;28.22;42.56;94276.16;5004623;28;7681;-60
2022/09/07 03:40:19;;;;;;;;;;;;;;;28.23;43.20;94269.34;4996971;28;7078;-59
2022/09/07 03:42:50;;;;;;;;;;;;;;;28.21;43.00;94269.13;4985450;28;8413;-59
2022/09/07 03:45:28;;;;;;;;;;;;;;;28.23;42.99;94271.38;4988304;28;7302;-59
2022/09/07 03:48:10;;;;;;;;;;;;;;;28.23;43.04;94277.63;4993145;28;7313;-59
2022/09/07 03:50:42;;;;;;;;;;;;;;;28.22;42.60;94283.72;4986287;28;7028;-59
2022/09/07 03:53:17;;;;;;;;;;;;;;;28.23;42.69;94293.50;4991223;28;8929;-59
2022/09/07 03:56:09;;;;;;;;;;;;;;;28.24;42.66;94292.22;5004869;28;7082;-59
2022/09/07 03:58:40;;;;;;;;;;;;;;;28.23;42.78;94291.47;5005981;28;7258;-59
2022/09/07 04:01:25;;;;;;;;;;;;;;;28.21;42.46;94291.25;4989628;28;9355;-59
2022/09/07 04:04:05;;;;;;;;;;;;;;;28.23;42.53;94290.75;5007314;28;9384;-59
2022/09/07 04:06:33;;;;;;;;;;;;;;;28.23;43.32;94282.44;5005080;28;9422;-59
2022/09/07 04:09:14;;;;;;;;;;;;;;;28.22;42.81;94275.41;4988447;28;9459;-59
2022/09/07 04:11:48;;;;;;;;;;;;;;;28.20;42.67;94278.72;4991113;28;7189;-60
2022/09/07 04:14:24;;;;;;;;;;;;;;;28.20;42.86;94291.78;4985828;28;9403;-59
2022/09/07 04:17:18;;;;;;;;;;;;;;;28.21;42.67;94298.81;5010776;28;7242;-59
2022/09/07 04:20:05;;;;;;;;;;;;;;;28.20;42.88;94286.25;4983177;28;7581;-59
2022/09/07 04:22:34;;;;;;;;;;;;;;;28.20;42.64;94289.03;4984593;28;8051;-59
2022/09/07 04:25:29;;;;;;;;;;;;;;;28.19;42.79;94293.06;4989307;28;7242;-59
2022/09/07 04:27:55;;;;;;;;;;;;;;;28.19;42.68;94296.56;4984454;28;7431;-59
2022/09/07 04:30:23;;;;;;;;;;;;;;;28.19;42.60;94284.75;4991914;28;6907;-59
2022/09/07 04:33:19;;;;;;;;;;;;;;;28.19;42.74;94287.53;5004142;28;9661;-59
2022/09/07 04:35:47;;;;;;;;;;;;;;;28.19;42.35;94290.28;4958993;28;7084;-59
2022/09/07 04:38:56;;;;;;;;;;;;;;;28.20;42.52;94294.56;4952387;28;9437;-59
2022/09/07 04:41:26;;;;;;;;;;;;;;;28.16;42.36;94289.34;4939410;28;7307;-59
2022/09/07 04:44:03;;;;;;;;;;;;;;;28.19;42.60;94293.06;4931363;28;7242;-61
2022/09/07 04:46:34;;;;;;;;;;;;;;;28.20;42.50;94300.09;4931237;28;7716;-60
2022/09/07 04:49:09;;;;;;;;;;;;;;;28.19;42.80;94287.53;4934174;28;8531;-60
2022/09/07 04:51:38;;;;;;;;;;;;;;;28.19;42.61;94288.28;4937048;28;7378;-60
2022/09/07 04:54:07;;;;;;;;;;;;;;;28.19;43.05;94301.34;4948416;28;7211;-60
2022/09/07 04:56:45;;;;;;;;;;;;;;;28.20;43.19;94297.31;4928840;28;7235;-60
2022/09/07 04:59:11;;;;;;;;;;;;;;;28.19;42.53;94285.50;4934718;28;9414;-60
2022/09/07 05:02:14;;;;;;;;;;;;;;;28.21;43.13;94296.03;4927966;28;7371;-60
2022/09/07 05:04:43;;;;;;;;;;;;;;;28.21;42.56;94298.81;4893617;29;8280;-60
2022/09/07 05:07:11;;;;;;;;;;;;;;;28.21;42.79;94298.81;4875834;29;7275;-61
2022/09/07 05:09:47;;;;;;;;;;;;;;;28.20;42.58;94297.31;4869777;29;7449;-60
2022/09/07 05:12:12;;;;;;;;;;;;;;;28.20;42.74;94302.84;4864585;29;7448;-60
2022/09/07 05:14:40;;;;;;;;;;;;;;;28.18;42.79;94297.88;4881451;29;7424;-60
2022/09/07 05:17:18;;;;;;;;;;;;;;;28.19;43.10;94302.09;4910127;29;7426;-60
2022/09/07 05:20:06;;;;;;;;;;;;;;;28.18;42.92;94306.16;4924408;29;7384;-60
2022/09/07 05:23:04;;;;;;;;;;;;;;;28.14;42.99;94307.75;4913026;29;7058;-60
2022/09/07 05:25:48;;;;;;;;;;;;;;;28.14;43.11;94305.69;4872075;29;7066;-60
2022/09/07 05:28:16;;;;;;;;;;;;;;;28.14;43.27;94304.97;4875523;29;7030;-60
2022/09/07 05:30:45;;;;;;;;;;;;;;;28.17;42.99;94306.66;4875323;29;7479;-60
2022/09/07 05:33:13;;;;;;;;;;;;;;;28.17;42.82;94301.13;4876222;29;7280;-61
2022/09/07 05:36:09;;;;;;;;;;;;;;;28.19;42.99;94315.19;4873915;29;7471;-60
2022/09/07 05:38:36;;;;;;;;;;;;;;;28.17;42.94;94314.97;4891003;29;7105;-60
2022/09/07 05:41:14;;;;;;;;;;;;;;;28.17;43.65;94312.94;4944972;28;7452;-60
2022/09/07 05:43:59;;;;;;;;;;;;;;;28.17;43.42;94320.50;4952430;28;7757;-60
2022/09/07 05:46:34;;;;;;;;;;;;;;;28.17;42.79;94317.72;4967093;28;8647;-60
2022/09/07 05:49:10;;;;;;;;;;;;;;;28.19;43.36;94312.41;4949568;28;7508;-60
2022/09/07 05:51:43;;;;;;;;;;;;;;;28.19;42.82;94315.19;4947565;28;7170;-60
2022/09/07 05:54:10;;;;;;;;;;;;;;;28.16;43.29;94313.50;4940280;28;7428;-60
2022/09/07 05:56:36;;;;;;;;;;;;;;;28.13;42.68;94315.28;4925917;28;7332;-60
2022/09/07 05:59:36;;;;;;;;;;;;;;;28.17;42.75;94326.03;4950370;28;7492;-61
2022/09/07 06:02:14;;;;;;;;;;;;;;;28.18;42.78;94327.53;4976027;28;7025;-60
2022/09/07 06:04:52;;;;;;;;;;;;;;;28.19;42.92;94329.75;4995265;28;7231;-60
2022/09/07 06:07:24;;;;;;;;;;;;;;;28.16;42.67;94324.56;4986496;28;7238;-59
2022/09/07 06:10:01;;;;;;;;;;;;;;;28.15;42.59;94320.28;5007329;28;7666;-60
2022/09/07 06:12:28;;;;;;;;;;;;;;;28.15;43.25;94325.81;4995534;28;8183;-60
2022/09/07 06:14:54;;;;;;;;;;;;;;;28.16;42.58;94324.56;4999558;28;7375;-60
2022/09/07 06:17:25;;;;;;;;;;;;;;;28.17;42.45;94323.25;4994322;28;7369;-60
2022/09/07 06:20:16;;;;;;;;;;;;;;;28.17;42.62;94320.50;5009256;28;7417;-60
2022/09/07 06:22:53;;;;;;;;;;;;;;;28.16;42.19;94319.78;4994871;28;7221;-60
2022/09/07 06:25:49;;;;;;;;;;;;;;;28.14;42.67;94321.56;5011808;28;6997;-60
2022/09/07 06:28:15;;;;;;;;;;;;;;;28.16;42.69;94330.09;4938869;28;9131;-60
2022/09/07 06:30:41;;;;;;;;;;;;;;;28.15;42.86;94325.81;4954269;28;9636;-60
2022/09/07 06:33:24;;;;;;;;;;;;;;;28.15;42.60;94326.56;4952465;28;7252;-60
2022/09/07 06:36:12;;;;;;;;;;;;;;;28.14;42.95;94330.59;4936796;28;10147;-60
2022/09/07 06:38:41;;;;;;;;;;;;;;;28.12;43.29;94326.88;4952431;28;7223;-59
2022/09/07 06:41:23;;;;;;;;;;;;;;;28.08;43.15;94323.66;4951979;28;7215;-60
2022/09/07 06:44:10;;;;;;;;;;;;;;;28.07;42.91;94322.19;4954375;28;7219;-60
2022/09/07 06:47:10;;;;;;;;;;;;;;;28.09;42.35;94333.47;4948055;28;7021;-60
2022/09/07 06:49:51;;;;;;;;;;;;;;;28.08;42.78;94332.72;4866647;29;7239;-60
2022/09/07 06:52:41;;;;;;;;;;;;;;;28.08;42.99;94335.47;4861835;29;7239;-60
2022/09/07 06:55:16;;;;;;;;;;;;;;;28.08;42.71;94329.19;4863299;29;7026;-60
2022/09/07 06:57:51;;;;;;;;;;;;;;;28.07;43.19;94341.53;4872140;29;8233;-60
2022/09/07 07:00:28;;;;;;;;;;;;;;;28.08;43.15;94337.50;4852760;29;7237;-60
2022/09/07 07:03:06;;;;;;;;;;;;;;;28.09;43.71;94327.94;4863944;29;9151;-60
2022/09/07 07:05:33;;;;;;;;;;;;;;;28.10;42.44;94323.91;4884616;29;7101;-60
2022/09/07 07:08:07;;;;;;;;;;;;;;;28.10;42.51;94330.16;4894022;29;9331;-60
2022/09/07 07:10:42;;;;;;;;;;;;;;;28.15;42.16;94334.09;4875434;29;7444;-60
2022/09/07 07:13:16;;;;;;;;;;;;;;;28.16;42.64;94327.31;4890960;29;7353;-60
2022/09/07 07:16:15;;;;;;;;;;;;;;;28.16;42.52;94333.59;4891530;29;8656;-60
2022/09/07 07:18:54;;;;;;;;;;;;;;;28.15;42.93;94323.03;4875523;29;9169;-60
2022/09/07 07:21:42;;;;;;;;;;;;;;;28.16;42.78;94321.78;4875190;29;8315;-60
2022/09/07 07:24:17;;;;;;;;;;;;;;;28.16;42.91;94322.53;4876797;28;8542;-60
2022/09/07 07:26:53;;;;;;;;;;;;;;;28.18;42.91;94330.28;4949789;28;7170;-60
2022/09/07 07:29:18;;;;;;;;;;;;;;;28.17;42.76;94326.78;4941796;28;8596;-60
2022/09/07 07:31:45;;;;;;;;;;;;;;;28.17;42.50;94329.53;4935579;28;8431;-60
2022/09/07 07:34:11;;;;;;;;;;;;;;;28.19;42.52;94334.53;4930822;28;7597;-60
2022/09/07 07:36:37;;;;;;;;;;;;;;;28.19;42.59;94331.78;4954022;28;9447;-60
2022/09/07 07:39:05;;;;;;;;;;;;;;;28.19;43.12;94337.31;4954011;28;6988;-60
2022/09/07 07:41:31;;;;;;;;;;;;;;;28.18;43.15;94342.13;4949563;28;7865;-61
2022/09/07 07:44:08;;;;;;;;;;;;;;;28.16;42.97;94347.44;4929009;28;9820;-60
2022/09/07 07:47:03;;;;;;;;;;;;;;;28.19;42.82;94338.06;4952539;28;9414;-60
2022/09/07 07:49:50;;;;;;;;;;;;;;;28.19;42.86;94340.81;4926792;28;10559;-60
2022/09/07 07:52:23;;;;;;;;;;;;;;;28.15;43.26;94347.94;4910024;29;7260;-61
2022/09/07 07:54:55;;;;;;;;;;;;;;;28.20;43.38;94342.31;4921868;28;7425;-60
2022/09/07 07:57:51;;;;;;;;;;;;;;;28.35;42.87;94337.03;4964181;28;7197;-60
2022/09/07 08:00:21;;;;;;;;;;;;;;;28.41;42.74;94331.38;4964356;28;8661;-60
2022/09/07 08:03:06;;;;;;;;;;;;;;;28.45;42.37;94334.56;4945023;28;9395;-60
2022/09/07 08:05:43;;;;;;;;;;;;;;;28.45;42.98;94331.09;4963075;28;7869;-60
2022/09/07 08:08:18;;;;;;;;;;;;;;;28.44;42.29;94330.31;4950988;28;7202;-60
2022/09/07 08:10:46;;;;;;;;;;;;;;;28.41;42.79;94330.63;4936379;28;9842;-61
2022/09/07 08:13:17;;;;;;;;;;;;;;;28.39;43.14;94336.69;4945400;28;7328;-60
2022/09/07 08:15:57;;;;;;;;;;;;;;;28.33;43.26;94327.75;4946756;28;7012;-60
2022/09/07 08:18:26;;;;;;;;;;;;;;;28.30;43.05;94331.56;4940340;28;8493;-60
2022/09/07 08:21:07;;;;;;;;;;;;;;;28.30;42.70;94328.81;4945388;28;7196;-60
2022/09/07 08:23:34;;;;;;;;;;;;;;;28.30;42.79;94332.34;4943755;28;7298;-60
2022/09/07 08:26:26;;;;;;;;;;;;;;;28.29;43.01;94335.63;4955819;28;7219;-60
2022/09/07 08:28:52;;;;;;;;;;;;;;;28.28;42.94;94345.19;5013122;28;7512;-60
2022/09/07 08:31:18;;;;;;;;;;;;;;;28.28;42.89;94345.19;5003716;28;7449;-60
2022/09/07 08:33:48;;;;;;;;;;;;;;;28.28;43.12;94342.44;4986539;28;7489;-60
2022/09/07 08:36:39;;;;;;;;;;;;;;;28.27;43.21;94333.38;4990499;28;7070;-60
2022/09/07 08:39:13;;;;;;;;;;;;;;;28.25;43.36;94335.94;4990839;28;6976;-60
2022/09/07 08:42:21;;;;;;;;;;;;;;;28.27;43.36;94332.66;4995966;28;7462;-60
2022/09/07 08:45:20;;;;;;;;;;;;;;;28.26;44.02;94336.69;4989223;28;6984;-59
2022/09/07 08:48:05;;;;;;;;;;;;;;;28.24;43.81;94328.94;4991259;28;7158;-60
2022/09/07 08:51:10;;;;;;;;;;;;;;;28.24;44.01;94328.94;4990521;28;9438;-60
2022/09/07 08:53:58;;;;;;;;;;;;;;;28.25;44.10;94326.91;4967249;28;7289;-59
2022/09/07 08:56:43;;;;;;;;;;;;;;;28.27;44.13;94321.59;4951902;28;7375;-60
2022/09/07 08:59:21;;;;;;;;;;;;;;;28.30;44.22;94314.97;4953767;28;7175;-60
2022/09/07 09:02:19;;;;;;;;;;;;;;;28.31;43.90;94311.69;4950703;28;7458;-60
2022/09/07 09:04:47;;;;;;;;;;;;;;;28.29;43.73;94313.50;4950771;28;7257;-60
2022/09/07 09:07:55;;;;;;;;;;;;;;;28.31;43.75;94310.94;4953628;28;7496;-60
2022/09/07 09:10:59;;;;;;;;;;;;;;;28.32;43.46;94307.66;4951620;28;8061;-60
2022/09/07 09:13:33;;;;;;;;;;;;;;;28.35;43.66;94311.38;4951753;28;9671;-60
2022/09/07 09:16:42;;;;;;;;;;;;;;;28.35;43.59;94314.91;4936637;28;10704;-60
2022/09/07 09:19:47;;;;;;;;;;;;;;;28.38;43.52;94311.06;4955922;28;9023;-60
2022/09/07 09:22:31;;;;;;;;;;;;;;;28.39;43.96;94306.28;4951620;28;7225;-60
2022/09/07 09:25:16;;;;;;;;;;;;;;;28.41;43.88;94300.19;4934998;28;7247;-60
2022/09/07 09:27:47;;;;;;;;;;;;;;;28.41;43.99;94294.66;4935222;28;7279;-60
2022/09/07 09:30:16;;;;;;;;;;;;;;;28.42;43.41;94291.38;4935443;28;7295;-60
2022/09/07 09:32:46;;;;;;;;;;;;;;;28.43;43.72;94289.38;4949397;28;7201;-60
2022/09/07 09:35:35;;;;;;;;;;;;;;;28.46;44.03;94277.22;4948843;28;7259;-60
2022/09/07 09:38:42;;;;;;;;;;;;;;;28.46;43.96;94283.50;4949532;28;6978;-60
2022/09/07 09:41:11;;;;;;;;;;;;;;;28.47;43.42;94278.72;4976200;28;7201;-60
2022/09/07 09:43:44;;;;;;;;;;;;;;;28.44;43.57;94277.00;4985432;28;7199;-60
2022/09/07 09:47:04;;;;;;;;;;;;;;;28.39;44.16;94270.31;5004156;28;9472;-60
2022/09/07 09:49:52;;;;;;;;;;;;;;;28.33;44.26;94273.19;4958028;28;8167;-60
2022/09/07 09:52:34;;;;;;;;;;;;;;;28.32;44.39;94273.69;4968656;28;7148;-60
2022/09/07 09:55:30;;;;;;;;;;;;;;;28.31;44.30;94261.16;4949637;28;6973;-60
2022/09/07 09:58:35;;;;;;;;;;;;;;;28.30;44.44;94259.66;4950230;28;7033;-60
2022/09/07 10:01:07;;;;;;;;;;;;;;;28.29;44.54;94249.88;4898124;29;6984;-60
2022/09/07 10:03:34;;;;;;;;;;;;;;;28.29;44.93;94250.63;4893419;29;7256;-61
2022/09/07 10:06:13;;;;;;;;;;;;;;;28.30;44.82;94243.06;4907716;29;9394;-60
2022/09/07 10:08:58;;;;;;;;;;;;;;;28.28;44.88;94245.63;4913475;29;7249;-61
2022/09/07 10:11:59;;;;;;;;;;;;;;;28.31;44.57;94237.03;4913473;29;7328;-60
2022/09/07 10:14:35;;;;;;;;;;;;;;;28.32;44.84;94240.50;4910061;29;8996;-60
2022/09/07 10:17:32;;;;;;;;;;;;;;;28.32;44.37;94234.97;4912333;29;7416;-60
2022/09/07 10:20:35;;;;;;;;;;;;;;;28.34;44.55;94232.41;4891779;29;9159;-61
2022/09/07 10:23:26;;;;;;;;;;;;;;;28.36;45.11;94227.13;4834455;29;7504;-60
2022/09/07 10:26:25;;;;;;;;;;;;;;;28.38;44.96;94223.81;4817964;29;7400;-60
2022/09/07 10:29:06;;;;;;;;;;;;;;;28.39;45.01;94231.56;4829130;29;7636;-60
2022/09/07 10:31:46;;;;;;;;;;;;;;;28.38;45.26;94210.75;4849112;29;7273;-60
2022/09/07 10:34:27;;;;;;;;;;;;;;;28.38;45.07;94211.47;4850387;29;9562;-60
2022/09/07 10:37:04;;;;;;;;;;;;;;;28.39;44.52;94206.69;4836344;29;7383;-60
2022/09/07 10:39:59;;;;;;;;;;;;;;;28.38;45.19;94194.84;4847997;29;6974;-60
2022/09/07 10:43:06;;;;;;;;;;;;;;;28.41;44.61;94197.84;4865549;29;7230;-60
2022/09/07 10:46:00;;;;;;;;;;;;;;;28.42;44.59;94193.81;4855893;29;7452;-61
2022/09/07 10:48:42;;;;;;;;;;;;;;;28.40;44.62;94188.81;4856729;29;7304;-60
2022/09/07 10:51:16;;;;;;;;;;;;;;;28.41;44.27;94187.53;4871617;29;9011;-60
2022/09/07 10:54:09;;;;;;;;;;;;;;;28.43;44.49;94184.97;4870626;29;9028;-60
2022/09/07 10:57:29;;;;;;;;;;;;;;;28.47;44.87;94181.88;4921475;28;6986;-60
2022/09/07 11:00:10;;;;;;;;;;;;;;;28.49;44.77;94176.56;4933353;28;7209;-60
2022/09/07 11:03:12;;;;;;;;;;;;;;;28.49;44.96;94180.06;4935482;28;7128;-60
2022/09/07 11:06:05;;;;;;;;;;;;;;;28.48;44.63;94178.56;4896436;29;7223;-60
2022/09/07 11:09:00;;;;;;;;;;;;;;;28.46;44.94;94174.84;4912421;29;7121;-60
2022/09/07 11:12:00;;;;;;;;;;;;;;;28.46;44.11;94172.84;4913080;29;7469;-60
2022/09/07 11:15:03;;;;;;;;;;;;;;;28.48;44.86;94170.28;4908256;29;9087;-60
2022/09/07 11:18:13;;;;;;;;;;;;;;;28.51;44.70;94163.69;4910402;29;7144;-60
2022/09/07 11:21:00;;;;;;;;;;;;;;;28.52;44.83;94161.63;4897533;29;7311;-60
2022/09/07 11:23:42;;;;;;;;;;;;;;;28.54;44.84;94164.59;4892528;29;7339;-59
2022/09/07 11:26:31;;;;;;;;;;;;;;;28.56;44.26;94157.25;4911969;29;7317;-60
2022/09/07 11:29:17;;;;;;;;;;;;;;;28.63;43.94;94159.41;4897710;29;7008;-60
2022/09/07 11:31:50;;;;;;;;;;;;;;;28.67;44.33;94153.53;4906109;29;8612;-60
2022/09/07 11:34:24;;;;;;;;;;;;;;;28.65;43.96;94145.03;4900576;29;7201;-60
2022/09/07 11:37:06;;;;;;;;;;;;;;;28.68;43.94;94141.19;4950083;28;7451;-59
2022/09/07 11:40:07;;;;;;;;;;;;;;;28.68;43.73;94144.72;4946034;28;9216;-60
2022/09/07 11:42:48;;;;;;;;;;;;;;;28.69;43.91;94140.66;4968666;28;9320;-60
2022/09/07 11:45:40;;;;;;;;;;;;;;;28.70;43.79;94136.63;4965350;28;7141;-60
2022/09/07 11:48:47;;;;;;;;;;;;;;;28.71;43.32;94140.13;4969887;28;7019;-60
2022/09/07 11:51:37;;;;;;;;;;;;;;;28.68;43.84;94136.41;4966154;28;9296;-60
2022/09/07 11:54:40;;;;;;;;;;;;;;;28.69;43.66;94134.38;4969324;28;7089;-60
2022/09/07 11:57:44;;;;;;;;;;;;;;;28.68;43.42;94128.09;4954603;28;7282;-60
2022/09/07 12:00:19;;;;;;;;;;;;;;;28.68;43.19;94119.06;4952539;28;7346;-60
2022/09/07 12:06:19;;;;;;;;;;;;;;;28.68;43.60;94110.75;4970231;28;7231;-61
2022/09/07 12:09:31;;;;;;;;;;;;;;;28.66;43.87;94111.31;4951056;28;9603;-60
2022/09/07 12:12:46;;;;;;;;;;;;;;;28.68;43.90;94113.53;4971518;28;7239;-61
2022/09/07 12:15:17;;;;;;;;;;;;;;;28.65;44.00;94115.34;4965534;28;7240;-60
2022/09/07 12:17:44;;;;;;;;;;;;;;;28.64;43.69;94113.88;4957311;28;7349;-60
2022/09/07 12:20:39;;;;;;;;;;;;;;;28.65;43.94;94112.56;4937777;28;6971;-60
2022/09/07 12:23:13;;;;;;;;;;;;;;;28.63;44.10;94106.06;4914900;29;7390;-60
2022/09/07 12:25:53;;;;;;;;;;;;;;;28.63;44.22;94104.06;4933031;28;7136;-60
2022/09/07 12:28:22;;;;;;;;;;;;;;;28.65;44.16;94097.97;4937197;28;7927;-60
2022/09/07 12:30:59;;;;;;;;;;;;;;;28.65;43.98;94095.97;4943256;28;9137;-60
2022/09/07 12:33:49;;;;;;;;;;;;;;;28.65;43.76;94093.19;4925641;28;9298;-60
2022/09/07 12:36:27;;;;;;;;;;;;;;;28.66;44.24;94091.19;4947458;28;7061;-60
2022/09/07 12:39:40;;;;;;;;;;;;;;;28.68;44.07;94088.63;4965396;28;7054;-60
2022/09/07 12:42:11;;;;;;;;;;;;;;;28.69;44.16;94090.84;4912439;28;9009;-60
2022/09/07 12:44:38;;;;;;;;;;;;;;;28.69;44.56;94088.06;4959074;28;6994;-60
2022/09/07 12:47:35;;;;;;;;;;;;;;;28.72;44.32;94083.47;4931653;28;7299;-60
2022/09/07 12:50:31;;;;;;;;;;;;;;;28.72;44.12;94077.94;4926193;29;7290;-60
2022/09/07 12:53:41;;;;;;;;;;;;;;;28.68;44.17;94072.75;4906608;29;7196;-60
2022/09/07 12:56:44;;;;;;;;;;;;;;;28.67;44.06;94070.50;4906279;29;7630;-60
2022/09/07 12:59:44;;;;;;;;;;;;;;;28.67;44.26;94067.75;4896779;29;7277;-60
2022/09/07 13:02:11;;;;;;;;;;;;;;;28.66;44.12;94061.50;4903839;29;7245;-60
2022/09/07 13:04:52;;;;;;;;;;;;;;;28.64;44.39;94058.50;4901232;29;7228;-61
2022/09/07 13:08:06;;;;;;;;;;;;;;;28.63;44.21;94061.81;4897300;29;7294;-60
2022/09/07 13:10:50;;;;;;;;;;;;;;;28.64;44.31;94055.75;4869594;29;9405;-60
2022/09/07 13:13:26;;;;;;;;;;;;;;;28.64;44.20;94050.22;4849466;29;7429;-60
2022/09/07 13:16:04;;;;;;;;;;;;;;;28.64;44.36;94041.16;4875671;29;7013;-60
2022/09/07 13:18:40;;;;;;;;;;;;;;;28.64;44.20;94036.38;4860199;29;7433;-60
2022/09/07 13:21:06;;;;;;;;;;;;;;;28.68;44.48;94033.25;4876112;29;7414;-60
2022/09/07 13:24:04;;;;;;;;;;;;;;;28.68;43.94;94020.16;4862821;29;7220;-60
2022/09/07 13:27:09;;;;;;;;;;;;;;;28.76;44.57;94023.75;4880229;29;7079;-60
2022/09/07 13:29:51;;;;;;;;;;;;;;;28.81;43.74;94011.06;4923115;28;9636;-60
2022/09/07 13:32:32;;;;;;;;;;;;;;;28.82;43.97;94010.50;4930550;28;7009;-60
2022/09/07 13:35:04;;;;;;;;;;;;;;;28.81;44.62;94009.03;4941497;28;7556;-60
2022/09/07 13:37:39;;;;;;;;;;;;;;;28.83;44.81;94003.69;4955476;28;6939;-60
2022/09/07 13:40:15;;;;;;;;;;;;;;;28.83;43.57;94006.47;4936665;28;7372;-60
2022/09/07 13:42:57;;;;;;;;;;;;;;;28.86;44.49;94005.34;4956444;28;7232;-60
2022/09/07 13:45:32;;;;;;;;;;;;;;;28.89;43.92;93998.75;4962960;28;7247;-60
2022/09/07 13:48:28;;;;;;;;;;;;;;;28.92;44.13;94002.47;4998471;28;7424;-60
2022/09/07 13:51:34;;;;;;;;;;;;;;;28.94;43.89;93989.56;5008721;28;7349;-60
2022/09/07 13:54:37;;;;;;;;;;;;;;;28.96;43.77;93983.47;5001229;28;7352;-60
2022/09/07 13:57:32;;;;;;;;;;;;;;;28.95;44.19;93974.44;4950665;28;9306;-60
2022/09/07 14:00:13;;;;;;;;;;;;;;;28.98;44.15;93976.13;4952955;28;7471;-60
2022/09/07 14:02:40;;;;;;;;;;;;;;;28.98;44.42;93970.59;4935407;29;9799;-60
2022/09/07 14:05:35;;;;;;;;;;;;;;;29.02;43.58;93965.44;4949198;28;9644;-60
2022/09/07 14:08:28;;;;;;;;;;;;;;;29.03;44.48;93966.94;4951440;28;7222;-60
2022/09/07 14:11:47;;;;;;;;;;;;;;;29.04;44.58;93971.16;4947256;28;9567;-60
2022/09/07 14:14:32;;;;;;;;;;;;;;;29.06;44.19;93968.59;4923419;29;7364;-60
2022/09/07 14:17:00;;;;;;;;;;;;;;;29.06;44.05;93970.63;4911194;29;7238;-60
2022/09/07 14:19:47;;;;;;;;;;;;;;;29.08;44.12;93959.75;4912497;29;8161;-60
2022/09/07 14:22:42;;;;;;;;;;;;;;;29.08;43.84;93957.72;4922981;29;7241;-60